createdAt,value
2022-12-11T00:01:30.497Z,-0.40
2022-12-11T00:04:02.436Z,-0.40
2022-12-11T00:06:34.247Z,-0.40
2022-12-11T00:09:05.962Z,-0.30
2022-12-11T00:11:37.744Z,-0.40
2022-12-11T00:14:09.637Z,-0.40
2022-12-11T00:16:43.144Z,-0.40
2022-12-11T00:19:15.698Z,-0.30
2022-12-11T00:21:47.540Z,-0.30
2022-12-11T00:24:19.439Z,-0.40
2022-12-11T00:26:51.307Z,-0.40
2022-12-11T00:29:23.074Z,-0.40
2022-12-11T00:31:54.991Z,-0.40
2022-12-11T00:34:26.984Z,-0.30
2022-12-11T00:36:59.177Z,-0.30
2022-12-11T00:39:31.095Z,-0.30
2022-12-11T00:42:02.986Z,-0.30
2022-12-11T00:44:35.384Z,-0.30
2022-12-11T00:47:08.435Z,-0.30
2022-12-11T00:49:43.882Z,-0.30
2022-12-11T00:52:18.383Z,-0.30
2022-12-11T00:54:50.209Z,-0.30
2022-12-11T00:57:22.104Z,-0.30
2022-12-11T00:59:53.989Z,-0.30
2022-12-11T01:02:25.760Z,-0.30
2022-12-11T01:04:57.541Z,-0.40
2022-12-11T01:07:29.263Z,-0.40
2022-12-11T01:10:20.020Z,-0.40
2022-12-11T01:12:58.069Z,-0.40
2022-12-11T01:15:34.180Z,-0.40
2022-12-11T01:18:09.163Z,-0.40
2022-12-11T01:20:42.697Z,-0.40
2022-12-11T01:23:14.613Z,-0.40
2022-12-11T01:25:46.383Z,-0.40
2022-12-11T01:28:18.082Z,-0.50
2022-12-11T01:30:49.831Z,-0.40
2022-12-11T01:33:21.543Z,-0.50
2022-12-11T01:35:53.789Z,-0.50
2022-12-11T01:38:25.565Z,-0.50
2022-12-11T01:40:57.382Z,-0.40
2022-12-11T01:43:29.134Z,-0.50
2022-12-11T01:46:01.137Z,-0.50
2022-12-11T01:48:35.732Z,-0.50
2022-12-11T01:51:11.065Z,-0.50
2022-12-11T01:53:49.210Z,-0.50
2022-12-11T01:56:21.126Z,-0.50
2022-12-11T01:58:56.376Z,-0.50
2022-12-11T02:01:34.176Z,-0.50
2022-12-11T02:04:08.283Z,-0.50
2022-12-11T02:06:46.884Z,-0.40
2022-12-11T02:09:33.438Z,-0.40
2022-12-11T02:12:07.851Z,-0.40
2022-12-11T02:14:57.631Z,-0.50
2022-12-11T02:17:38.866Z,-0.50
2022-12-11T02:20:32.912Z,-0.50
2022-12-11T02:23:29.364Z,-0.50
2022-12-11T02:26:47.118Z,-0.50
2022-12-11T02:29:26.002Z,-0.50
2022-12-11T02:32:13.764Z,-0.50
2022-12-11T02:34:54.164Z,-0.50
2022-12-11T02:37:29.660Z,-0.50
2022-12-11T02:40:05.506Z,-0.50
2022-12-11T02:42:40.674Z,-0.60
2022-12-11T02:45:14.143Z,-0.60
2022-12-11T02:47:48.847Z,-0.50
2022-12-11T02:50:23.553Z,-0.60
2022-12-11T02:52:57.487Z,-0.60
2022-12-11T02:55:32.354Z,-0.50
2022-12-11T02:58:17.437Z,-0.50
2022-12-11T03:00:51.021Z,-0.50
2022-12-11T03:03:23.609Z,-0.50
2022-12-11T03:05:55.756Z,-0.60
2022-12-11T03:08:27.574Z,-0.60
2022-12-11T03:10:59.608Z,-0.60
2022-12-11T03:13:32.292Z,-0.70
2022-12-11T03:16:24.709Z,-0.70
2022-12-11T03:19:12.675Z,-0.80
2022-12-11T03:21:52.582Z,-0.80
2022-12-11T03:24:46.140Z,-0.80
2022-12-11T03:27:23.890Z,-0.90
2022-12-11T03:30:00.032Z,-1.00
2022-12-11T03:32:38.319Z,-1.00
2022-12-11T03:35:23.214Z,-1.10
2022-12-11T03:38:00.378Z,-1.20
2022-12-11T03:40:35.591Z,-1.30
2022-12-11T03:43:07.834Z,-1.30
2022-12-11T03:45:41.158Z,-1.40
2022-12-11T03:48:14.610Z,-1.40
2022-12-11T03:50:48.694Z,-1.40
2022-12-11T03:53:21.380Z,-1.40
2022-12-11T03:55:54.623Z,-1.40
2022-12-11T03:58:26.419Z,-1.40
2022-12-11T04:00:58.236Z,-1.40
2022-12-11T04:03:30.079Z,-1.40
2022-12-11T04:06:01.853Z,-1.40
2022-12-11T04:08:33.729Z,-1.50
2022-12-11T04:11:24.335Z,-1.50
2022-12-11T04:14:14.783Z,-1.60
2022-12-11T04:16:46.512Z,-1.60
2022-12-11T04:19:37.406Z,-1.60
2022-12-11T04:22:33.849Z,-1.60
2022-12-11T04:25:07.647Z,-1.70
2022-12-11T04:27:51.653Z,-1.70
2022-12-11T04:30:29.319Z,-1.70
2022-12-11T04:33:04.232Z,-1.70
2022-12-11T04:35:36.387Z,-1.80
2022-12-11T04:38:08.100Z,-1.80
2022-12-11T04:40:39.852Z,-1.90
2022-12-11T04:43:11.592Z,-1.90
2022-12-11T04:45:43.297Z,-1.90
2022-12-11T04:48:15.006Z,-1.90
2022-12-11T04:50:46.711Z,-1.90
2022-12-11T04:53:18.414Z,-1.90
2022-12-11T04:55:50.192Z,-1.90
2022-12-11T04:58:22.566Z,-1.90
2022-12-11T05:00:54.338Z,-2.00
2022-12-11T05:03:26.067Z,-2.00
2022-12-11T05:05:57.767Z,-2.00
2022-12-11T05:08:29.563Z,-2.10
2022-12-11T05:11:03.694Z,-2.10
2022-12-11T05:13:36.005Z,-2.10
2022-12-11T05:16:10.044Z,-2.10
2022-12-11T05:18:42.546Z,-2.10
2022-12-11T05:21:15.842Z,-2.10
2022-12-11T05:23:47.636Z,-2.10
2022-12-11T05:26:21.198Z,-2.10
2022-12-11T05:28:54.574Z,-2.00
2022-12-11T05:31:27.818Z,-2.10
2022-12-11T05:33:59.627Z,-2.00
2022-12-11T05:36:33.249Z,-2.00
2022-12-11T05:39:05.238Z,-2.10
2022-12-11T05:41:36.954Z,-2.10
2022-12-11T05:44:13.716Z,-2.10
2022-12-11T05:46:45.666Z,-2.10
2022-12-11T05:49:20.042Z,-2.10
2022-12-11T05:51:52.004Z,-2.10
2022-12-11T05:54:23.747Z,-2.10
2022-12-11T05:56:55.455Z,-2.10
2022-12-11T05:59:27.187Z,-2.10
2022-12-11T06:01:59.071Z,-2.10
2022-12-11T06:04:30.861Z,-2.10
2022-12-11T06:07:02.564Z,-2.10
2022-12-11T06:09:34.336Z,-2.20
2022-12-11T06:12:06.191Z,-2.20
2022-12-11T06:14:38.070Z,-2.20
2022-12-11T06:17:09.915Z,-2.20
2022-12-11T06:19:41.648Z,-2.20
2022-12-11T06:22:13.390Z,-2.20
2022-12-11T06:24:45.139Z,-2.20
2022-12-11T06:27:16.865Z,-2.20
2022-12-11T06:29:48.692Z,-2.20
2022-12-11T06:32:20.430Z,-2.20
2022-12-11T06:34:52.157Z,-2.30
2022-12-11T06:37:23.902Z,-2.30
2022-12-11T06:39:55.603Z,-2.30
2022-12-11T06:42:29.159Z,-2.40
2022-12-11T06:45:01.198Z,-2.40
2022-12-11T06:47:33.214Z,-2.40
2022-12-11T06:50:05.530Z,-2.40
2022-12-11T06:52:37.219Z,-2.40
2022-12-11T06:55:09.396Z,-2.40
2022-12-11T06:57:41.386Z,-2.40
2022-12-11T07:00:14.056Z,-2.50
2022-12-11T07:02:45.812Z,-2.50
2022-12-11T07:05:17.651Z,-2.50
2022-12-11T07:07:49.477Z,-2.50
2022-12-11T07:10:21.954Z,-2.50
2022-12-11T07:12:54.529Z,-2.50
2022-12-11T07:15:26.298Z,-2.50
2022-12-11T07:17:58.057Z,-2.50
2022-12-11T07:20:29.791Z,-2.40
2022-12-11T07:23:01.495Z,-2.40
2022-12-11T07:25:33.215Z,-2.40
2022-12-11T07:28:05.024Z,-2.40
2022-12-11T07:30:38.967Z,-2.40
2022-12-11T07:33:10.761Z,-2.40
2022-12-11T07:35:42.689Z,-2.40
2022-12-11T07:38:14.426Z,-2.40
2022-12-11T07:40:46.258Z,-2.40
2022-12-11T07:43:18.059Z,-2.40
2022-12-11T07:45:50.022Z,-2.30
2022-12-11T07:48:21.775Z,-2.40
2022-12-11T07:50:53.521Z,-2.30
2022-12-11T07:53:25.461Z,-2.20
2022-12-11T07:55:59.558Z,-2.20
2022-12-11T07:58:31.307Z,-2.20
2022-12-11T08:01:03.096Z,-2.10
2022-12-11T08:03:34.825Z,-2.10
2022-12-11T08:06:06.804Z,-2.00
2022-12-11T08:08:39.728Z,-1.90
2022-12-11T08:11:14.141Z,-1.90
2022-12-11T08:13:45.890Z,-1.90
2022-12-11T08:16:18.606Z,-1.80
2022-12-11T08:18:50.411Z,-1.70
2022-12-11T08:21:25.409Z,-1.60
2022-12-11T08:23:57.171Z,-1.60
2022-12-11T08:26:31.292Z,-1.60
2022-12-11T08:29:03.744Z,-1.70
2022-12-11T08:31:38.836Z,-1.60
2022-12-11T08:34:13.755Z,-1.60
2022-12-11T08:36:45.615Z,-1.50
2022-12-11T08:39:17.302Z,-1.50
2022-12-11T08:41:49.005Z,-1.50
2022-12-11T08:44:21.021Z,-1.40
2022-12-11T08:46:53.078Z,-1.40
2022-12-11T08:49:27.512Z,-1.30
2022-12-11T08:52:03.813Z,-1.30
2022-12-11T08:54:38.030Z,-1.20
2022-12-11T08:57:09.771Z,-1.10
2022-12-11T08:59:41.555Z,-1.10
2022-12-11T09:02:13.469Z,-1.00
2022-12-11T09:04:45.298Z,-1.00
2022-12-11T09:07:17.802Z,-0.90
2022-12-11T09:09:49.524Z,-1.00
2022-12-11T09:12:21.246Z,-0.90
2022-12-11T09:14:53.210Z,-0.80
2022-12-11T09:17:24.957Z,-0.70
2022-12-11T09:19:56.734Z,-0.80
2022-12-11T09:22:28.623Z,-0.80
2022-12-11T09:25:00.334Z,-0.80
2022-12-11T09:27:32.055Z,-0.90
2022-12-11T09:30:05.076Z,-0.90
2022-12-11T09:32:36.818Z,-0.80
2022-12-11T09:35:09.504Z,-0.70
2022-12-11T09:37:41.363Z,-0.70
2022-12-11T09:40:13.901Z,-0.70
2022-12-11T09:43:09.198Z,-0.80
2022-12-11T09:45:41.032Z,-0.90
2022-12-11T09:48:23.372Z,-0.90
2022-12-11T09:50:55.626Z,-0.90
2022-12-11T09:53:34.476Z,-0.90
2022-12-11T09:56:17.794Z,-0.90
2022-12-11T09:58:57.503Z,-0.90
2022-12-11T10:01:34.727Z,-0.90
2022-12-11T10:04:18.330Z,-0.80
2022-12-11T10:07:02.907Z,-0.70
2022-12-11T10:09:59.583Z,-0.60
2022-12-11T10:12:54.837Z,-0.70
2022-12-11T10:15:36.894Z,-0.50
2022-12-11T10:18:18.917Z,-0.40
2022-12-11T10:20:53.098Z,-0.30
2022-12-11T10:23:38.183Z,-0.30
2022-12-11T10:26:16.613Z,-0.30
2022-12-11T10:28:48.518Z,-0.20
2022-12-11T10:31:32.177Z,-0.10
2022-12-11T10:34:12.764Z,0.00
2022-12-11T10:36:45.307Z,0.00
2022-12-11T10:39:19.702Z,-0.10
2022-12-11T10:41:53.318Z,-0.10
2022-12-11T10:44:28.309Z,-0.10
2022-12-11T10:47:11.576Z,-0.20
2022-12-11T10:49:52.037Z,-0.10
2022-12-11T10:52:25.236Z,-0.10
2022-12-11T10:55:01.513Z,-0.10
2022-12-11T10:57:36.119Z,0.00
2022-12-11T11:00:36.947Z,-0.10
2022-12-11T11:03:25.483Z,-0.10
2022-12-11T11:06:15.438Z,-0.10
2022-12-11T11:08:50.517Z,-0.20
2022-12-11T11:11:36.630Z,-0.20
2022-12-11T11:14:15.441Z,-0.10
2022-12-11T11:16:54.676Z,-0.10
2022-12-11T11:19:35.985Z,0.00
2022-12-11T11:22:14.545Z,0.00
2022-12-11T11:24:55.401Z,-0.10
2022-12-11T11:27:43.889Z,-0.10
2022-12-11T11:30:33.413Z,-0.10
2022-12-11T11:33:14.242Z,-0.10
2022-12-11T11:35:54.778Z,-0.20
2022-12-11T11:38:28.325Z,-0.20
2022-12-11T11:41:17.384Z,-0.20
2022-12-11T11:43:53.071Z,-0.30
2022-12-11T11:46:45.553Z,-0.40
2022-12-11T11:49:41.526Z,-0.40
2022-12-11T11:52:48.967Z,-0.40
2022-12-11T11:55:38.143Z,-0.40
2022-12-11T11:58:19.261Z,-0.30
2022-12-11T12:00:54.909Z,-0.10
2022-12-11T12:03:28.456Z,0.00
2022-12-11T12:06:31.581Z,0.20
2022-12-11T12:09:13.438Z,0.40
2022-12-11T12:11:48.196Z,0.50
2022-12-11T12:17:41.827Z,0.50
2022-12-11T12:20:29.653Z,0.60
2022-12-11T12:23:43.895Z,0.50
2022-12-11T12:26:41.420Z,0.30
2022-12-11T12:29:31.945Z,0.20
2022-12-11T12:32:32.759Z,0.20
2022-12-11T12:35:10.747Z,0.10
2022-12-11T12:38:10.434Z,0.10
2022-12-11T12:41:00.307Z,0.10
2022-12-11T12:43:47.340Z,0.10
2022-12-11T12:46:42.819Z,0.00
2022-12-11T12:49:19.516Z,0.00
2022-12-11T12:51:52.777Z,0.00
2022-12-11T12:54:28.886Z,0.00
2022-12-11T12:57:03.601Z,0.00
2022-12-11T12:59:35.351Z,0.00
2022-12-11T13:02:16.199Z,0.00
2022-12-11T13:04:58.267Z,0.60
2022-12-11T13:07:32.604Z,-0.10
2022-12-11T13:10:04.427Z,-0.10
2022-12-11T13:12:45.387Z,-0.10
2022-12-11T13:15:40.684Z,-0.10
2022-12-11T13:18:37.058Z,0.00
2022-12-11T13:21:34.847Z,-0.10
2022-12-11T13:24:15.644Z,0.00
2022-12-11T13:26:49.491Z,0.00
2022-12-11T13:29:34.603Z,0.00
2022-12-11T13:32:09.136Z,-0.10
2022-12-11T13:34:45.179Z,-0.10
2022-12-11T13:37:39.593Z,-0.20
2022-12-11T13:40:24.543Z,-0.30
2022-12-11T13:43:03.343Z,-0.30
2022-12-11T13:45:42.696Z,-0.30
2022-12-11T13:48:27.418Z,-0.30
2022-12-11T13:51:00.204Z,-0.30
2022-12-11T13:53:32.419Z,-0.30
2022-12-11T13:56:07.661Z,-0.30
2022-12-11T13:58:39.950Z,-0.30
2022-12-11T14:01:17.096Z,-0.40
2022-12-11T14:04:02.576Z,-0.40
2022-12-11T14:06:35.941Z,-0.50
2022-12-11T14:09:09.032Z,-0.50
2022-12-11T14:11:42.733Z,-0.50
2022-12-11T14:14:31.842Z,-0.50
2022-12-11T14:17:04.299Z,-0.50
2022-12-11T14:19:36.327Z,-0.50
2022-12-11T14:22:22.729Z,-0.40
2022-12-11T14:25:00.097Z,-0.50
2022-12-11T14:27:31.871Z,-0.60
2022-12-11T14:30:11.632Z,-0.60
2022-12-11T14:32:44.969Z,-0.60
2022-12-11T14:35:37.097Z,-0.70
2022-12-11T14:38:19.607Z,-0.60
2022-12-11T14:40:56.819Z,-0.70
2022-12-11T14:43:40.091Z,-0.70
2022-12-11T14:46:19.971Z,-0.70
2022-12-11T14:49:01.192Z,-0.70
2022-12-11T14:51:39.273Z,-0.70
2022-12-11T14:54:22.249Z,-0.70
2022-12-11T14:56:54.816Z,-0.70
2022-12-11T14:59:32.028Z,-0.70
2022-12-11T15:02:21.106Z,-0.70
2022-12-11T15:05:07.517Z,-0.70
2022-12-11T15:07:41.117Z,-0.70
2022-12-11T15:10:43.062Z,-0.70
2022-12-11T15:13:22.539Z,-0.70
2022-12-11T15:15:55.665Z,-0.70
2022-12-11T15:18:32.705Z,-0.80
2022-12-11T15:21:10.783Z,-0.80
2022-12-11T15:23:53.008Z,-0.80
2022-12-11T15:26:47.828Z,-0.80
2022-12-11T15:29:36.692Z,-0.80
2022-12-11T15:32:08.449Z,-0.80
2022-12-11T15:34:53.613Z,-0.80
2022-12-11T15:37:31.187Z,-0.80
2022-12-11T15:40:04.728Z,-0.80
2022-12-11T15:42:39.804Z,-0.90
2022-12-11T15:45:40.774Z,-0.90
2022-12-11T15:48:12.632Z,-0.90
2022-12-11T15:50:44.365Z,-0.90
2022-12-11T15:53:16.092Z,-0.90
2022-12-11T15:55:47.986Z,-0.90
2022-12-11T15:58:23.231Z,-0.90
2022-12-11T16:00:55.397Z,-1.00
2022-12-11T16:03:27.216Z,-1.00
2022-12-11T16:05:59.029Z,-1.00
2022-12-11T16:08:30.977Z,-1.00
2022-12-11T16:11:02.758Z,-1.00
2022-12-11T16:13:34.501Z,-1.00
2022-12-11T16:16:06.652Z,-1.00
2022-12-11T16:18:38.455Z,-1.00
2022-12-11T16:21:10.186Z,-1.00
2022-12-11T16:23:41.901Z,-1.00
2022-12-11T16:26:14.483Z,-0.90
2022-12-11T16:28:46.222Z,-0.90
2022-12-11T16:31:18.050Z,-1.00
2022-12-11T16:33:49.841Z,-1.00
2022-12-11T16:36:21.738Z,-1.00
2022-12-11T16:38:54.341Z,-1.00
2022-12-11T16:41:26.423Z,-1.00
2022-12-11T16:44:00.770Z,-1.00
2022-12-11T16:46:32.517Z,-1.10
2022-12-11T16:49:05.094Z,-1.10
2022-12-11T16:51:36.828Z,-1.10
2022-12-11T16:54:09.163Z,-1.10
2022-12-11T16:56:41.038Z,-1.10
2022-12-11T16:59:13.009Z,-1.20
2022-12-11T17:01:45.172Z,-1.30
2022-12-11T17:04:17.211Z,-1.30
2022-12-11T17:06:49.079Z,-1.30
2022-12-11T17:09:20.891Z,-1.30
2022-12-11T17:11:52.610Z,-1.40
2022-12-11T17:14:24.911Z,-1.40
2022-12-11T17:16:56.855Z,-1.40
2022-12-11T17:19:28.588Z,-1.40
2022-12-11T17:22:00.435Z,-1.40
2022-12-11T17:24:32.134Z,-1.40
2022-12-11T17:27:03.945Z,-1.40
2022-12-11T17:29:35.709Z,-1.40
2022-12-11T17:32:07.498Z,-1.30
2022-12-11T17:34:39.236Z,-1.40
2022-12-11T17:37:11.153Z,-1.30
2022-12-11T17:39:43.366Z,-1.30
2022-12-11T17:42:15.101Z,-1.30
2022-12-11T17:44:46.843Z,-1.30
2022-12-11T17:47:18.549Z,-1.40
2022-12-11T17:49:50.273Z,-1.40
2022-12-11T17:52:22.100Z,-1.30
2022-12-11T17:54:53.926Z,-1.40
2022-12-11T17:57:25.652Z,-1.30
2022-12-11T17:59:57.464Z,-1.30
2022-12-11T18:02:29.230Z,-1.40
2022-12-11T18:05:01.214Z,-1.40
2022-12-11T18:07:35.581Z,-1.40
2022-12-11T18:10:07.641Z,-1.40
2022-12-11T18:12:39.408Z,-1.40
2022-12-11T18:15:11.747Z,-1.40
2022-12-11T18:17:43.972Z,-1.40
2022-12-11T18:20:16.030Z,-1.50
2022-12-11T18:22:47.747Z,-1.50
2022-12-11T18:25:19.642Z,-1.50
2022-12-11T18:27:51.665Z,-1.50
2022-12-11T18:30:25.324Z,-1.50
2022-12-11T18:32:57.062Z,-1.50
2022-12-11T18:35:29.799Z,-1.50
2022-12-11T18:38:01.603Z,-1.50
2022-12-11T18:40:33.575Z,-1.50
2022-12-11T18:43:05.540Z,-1.50
2022-12-11T18:45:41.829Z,-1.50
2022-12-11T18:48:15.002Z,-1.50
2022-12-11T18:50:48.635Z,-1.50
2022-12-11T18:53:20.363Z,-1.50
2022-12-11T18:55:57.103Z,-1.50
2022-12-11T18:58:31.865Z,-1.50
2022-12-11T19:01:07.972Z,-1.50
2022-12-11T19:03:40.034Z,-1.50
2022-12-11T19:06:17.770Z,-1.50
2022-12-11T19:08:49.714Z,-1.50
2022-12-11T19:11:24.659Z,-1.50
2022-12-11T19:13:56.755Z,-1.50
2022-12-11T19:16:33.412Z,-1.50
2022-12-11T19:19:11.797Z,-1.50
2022-12-11T19:21:44.688Z,-1.50
2022-12-11T19:24:19.820Z,-1.50
2022-12-11T19:26:51.841Z,-1.50
2022-12-11T19:29:26.765Z,-0.30
2022-12-11T19:31:59.041Z,-1.60
2022-12-11T19:34:30.799Z,-1.60
2022-12-11T19:37:02.510Z,-1.60
2022-12-11T19:39:34.556Z,-1.60
2022-12-11T19:42:06.338Z,-3.60
2022-12-11T19:44:38.222Z,-1.60
2022-12-11T19:47:10.034Z,-1.70
2022-12-11T19:49:41.827Z,-1.70
2022-12-11T19:52:13.570Z,-1.70
2022-12-11T19:54:45.335Z,-1.70
2022-12-11T19:57:17.092Z,-1.70
2022-12-11T19:59:53.890Z,-1.70
2022-12-11T20:02:28.640Z,-1.80
2022-12-11T20:05:00.426Z,-1.80
2022-12-11T20:07:32.159Z,-1.90
2022-12-11T20:10:05.448Z,-1.90
2022-12-11T20:12:37.293Z,-1.90
2022-12-11T20:15:09.573Z,-1.90
2022-12-11T20:17:44.579Z,-2.00
2022-12-11T20:20:16.399Z,-2.00
2022-12-11T20:22:50.982Z,-2.00
2022-12-11T20:25:24.112Z,-2.00
2022-12-11T20:27:56.107Z,-2.00
2022-12-11T20:30:27.865Z,-2.00
2022-12-11T20:32:59.604Z,-2.00
2022-12-11T20:35:31.343Z,-2.00
2022-12-11T20:38:03.078Z,-2.00
2022-12-11T20:40:34.888Z,-2.10
2022-12-11T20:43:06.620Z,-2.10
2022-12-11T20:45:38.444Z,-2.00
2022-12-11T20:48:10.183Z,-2.00
2022-12-11T20:50:42.176Z,-2.00
2022-12-11T20:53:13.922Z,-2.00
2022-12-11T20:55:45.658Z,-2.00
2022-12-11T20:58:17.381Z,-2.00
2022-12-11T21:00:49.162Z,-2.00
2022-12-11T21:03:20.954Z,-2.00
2022-12-11T21:05:52.771Z,-2.00
2022-12-11T21:08:24.897Z,-1.30
2022-12-11T21:10:56.705Z,-2.00
2022-12-11T21:13:28.452Z,-1.90
2022-12-11T21:16:07.411Z,-1.90
2022-12-11T21:18:39.902Z,-1.90
2022-12-11T21:21:12.151Z,-1.90
2022-12-11T21:23:44.453Z,-1.90
2022-12-11T21:26:16.288Z,-1.90
2022-12-11T21:28:48.606Z,-1.90
2022-12-11T21:31:20.613Z,-1.90
2022-12-11T21:33:52.453Z,-1.90
2022-12-11T21:36:24.645Z,-1.90
2022-12-11T21:38:58.782Z,-1.90
2022-12-11T21:41:30.679Z,-1.90
2022-12-11T21:45:14.514Z,-1.90
2022-12-11T21:46:54.277Z,-1.90
2022-12-11T21:49:26.027Z,-1.80
2022-12-11T21:51:57.801Z,-1.80
2022-12-11T21:54:29.553Z,-1.80
2022-12-11T21:57:01.579Z,-1.80
2022-12-11T21:59:33.391Z,-1.80
2022-12-11T22:02:05.193Z,-1.80
2022-12-11T22:04:37.823Z,-1.80
2022-12-11T22:07:09.602Z,-1.90
2022-12-11T22:09:41.623Z,-1.90
2022-12-11T22:12:22.695Z,-1.90
2022-12-11T22:14:54.978Z,-1.90
2022-12-11T22:17:27.291Z,-1.90
2022-12-11T22:20:00.416Z,-1.90
2022-12-11T22:22:32.256Z,-1.90
2022-12-11T22:25:07.004Z,-1.90
2022-12-11T22:27:38.755Z,-1.90
2022-12-11T22:30:11.805Z,-1.90
2022-12-11T22:32:45.166Z,-1.90
2022-12-11T22:35:16.903Z,-2.00
2022-12-11T22:37:48.676Z,-2.00
2022-12-11T22:40:20.845Z,-2.00
2022-12-11T22:42:53.397Z,-2.00
2022-12-11T22:45:25.349Z,-1.90
2022-12-11T22:47:57.116Z,-1.90
2022-12-11T22:50:28.834Z,-1.90
2022-12-11T22:53:00.671Z,-1.90
2022-12-11T22:55:32.891Z,-1.90
2022-12-11T22:58:04.627Z,-1.80
2022-12-11T23:00:36.363Z,-1.80
2022-12-11T23:03:08.183Z,-1.80
2022-12-11T23:05:40.979Z,-1.80
2022-12-11T23:08:12.865Z,-1.80
2022-12-11T23:10:44.937Z,-1.80
2022-12-11T23:13:16.866Z,-1.80
2022-12-11T23:15:48.703Z,-1.80
2022-12-11T23:18:20.606Z,-1.80
2022-12-11T23:20:52.362Z,-1.80
2022-12-11T23:23:24.133Z,-1.80
2022-12-11T23:25:56.707Z,-1.80
2022-12-11T23:28:28.548Z,-1.80
2022-12-11T23:31:00.373Z,-1.80
2022-12-11T23:33:32.293Z,-1.80
2022-12-11T23:36:04.587Z,-1.80
2022-12-11T23:38:37.172Z,-1.90
2022-12-11T23:41:11.590Z,-1.90
2022-12-11T23:43:43.354Z,-1.90
2022-12-11T23:46:18.027Z,-1.90
2022-12-11T23:48:50.455Z,-1.90
2022-12-11T23:51:24.187Z,-1.90
2022-12-11T23:53:56.360Z,-2.00
2022-12-11T23:56:30.100Z,-1.90
2022-12-11T23:59:01.850Z,-2.00
